createdAt,value
2023-11-19T00:01:38.922Z,33.55
2023-11-19T00:06:43.350Z,34.03
2023-11-19T00:11:54.385Z,33.65
2023-11-19T00:16:57.734Z,32.95
2023-11-19T00:22:04.135Z,33.70
2023-11-19T00:27:08.898Z,33.67
2023-11-19T00:32:12.666Z,33.30
2023-11-19T00:37:17.755Z,33.58
2023-11-19T00:42:21.612Z,33.72
2023-11-19T00:47:24.566Z,33.85
2023-11-19T00:52:28.878Z,34.33
2023-11-19T00:57:33.914Z,33.75
2023-11-19T01:02:36.981Z,33.45
2023-11-19T01:07:41.400Z,34.15
2023-11-19T01:12:44.327Z,33.58
2023-11-19T01:22:54.523Z,34.30
2023-11-19T01:27:59.676Z,33.70
2023-11-19T01:33:02.737Z,33.45
2023-11-19T01:38:06.990Z,34.00
2023-11-19T01:43:12.522Z,33.75
2023-11-19T01:48:16.697Z,34.00
2023-11-19T01:53:21.226Z,33.67
2023-11-19T01:58:25.275Z,34.45
2023-11-19T02:03:30.387Z,33.80
2023-11-19T02:08:34.871Z,33.70
2023-11-19T02:13:40.277Z,34.05
2023-11-19T02:18:44.093Z,33.83
2023-11-19T02:23:48.695Z,34.30
2023-11-19T02:28:53.533Z,33.95
2023-11-19T02:33:56.580Z,33.95
2023-11-19T02:38:59.521Z,33.97
2023-11-19T02:44:04.322Z,34.03
2023-11-19T02:49:07.873Z,33.90
2023-11-19T02:54:11.044Z,33.97
2023-11-19T02:59:28.188Z,33.50
2023-11-19T03:04:31.862Z,33.58
2023-11-19T03:09:34.988Z,33.80
2023-11-19T03:14:39.263Z,33.80
2023-11-19T03:19:42.581Z,33.83
2023-11-19T03:24:45.682Z,33.80
2023-11-19T03:29:49.972Z,34.35
2023-11-19T03:34:53.183Z,33.67
2023-11-19T03:40:02.789Z,33.80
2023-11-19T03:45:09.682Z,34.03
2023-11-19T03:50:12.685Z,33.55
2023-11-19T03:55:15.691Z,33.45
2023-11-19T04:00:22.173Z,34.13
2023-11-19T04:05:25.248Z,33.90
2023-11-19T04:10:28.707Z,34.33
2023-11-19T04:15:34.782Z,33.47
2023-11-19T04:20:37.737Z,33.97
2023-11-19T04:25:40.848Z,34.25
2023-11-19T04:30:45.377Z,34.05
2023-11-19T04:35:48.367Z,33.80
2023-11-19T04:40:51.388Z,33.67
2023-11-19T04:45:55.834Z,33.42
2023-11-19T04:50:59.045Z,33.67
2023-11-19T04:56:02.018Z,34.60
2023-11-19T05:01:06.928Z,33.85
2023-11-19T05:06:10.502Z,33.95
2023-11-19T05:11:18.997Z,33.92
2023-11-19T05:16:23.340Z,34.85
2023-11-19T05:21:26.305Z,34.13
2023-11-19T05:26:29.263Z,33.83
2023-11-19T05:31:36.684Z,34.00
2023-11-19T05:36:40.703Z,34.13
2023-11-19T05:41:43.844Z,33.90
2023-11-19T05:46:48.232Z,34.10
2023-11-19T05:51:52.359Z,33.88
2023-11-19T05:56:55.909Z,34.13
2023-11-19T06:02:01.311Z,33.97
2023-11-19T06:07:04.316Z,34.53
2023-11-19T06:12:08.552Z,34.05
2023-11-19T06:17:13.378Z,34.65
2023-11-19T06:22:16.504Z,34.08
2023-11-19T06:27:19.616Z,34.25
2023-11-19T06:32:23.916Z,34.63
2023-11-19T06:37:28.318Z,33.78
2023-11-19T06:42:31.367Z,34.38
2023-11-19T06:47:35.664Z,34.10
2023-11-19T06:52:39.432Z,33.88
2023-11-19T06:57:42.689Z,34.10
2023-11-19T07:02:47.077Z,33.97
2023-11-19T07:07:50.089Z,33.97
2023-11-19T07:12:53.031Z,34.05
2023-11-19T07:18:02.724Z,34.20
2023-11-19T07:23:06.369Z,34.17
2023-11-19T07:28:09.358Z,34.08
2023-11-19T07:33:14.799Z,34.33
2023-11-19T07:38:18.182Z,34.13
2023-11-19T07:43:21.177Z,34.38
2023-11-19T07:48:25.700Z,34.10
2023-11-19T07:53:29.188Z,34.30
2023-11-19T07:58:32.203Z,35.30
2023-11-19T08:03:36.745Z,34.45
2023-11-19T08:08:40.196Z,34.55
2023-11-19T08:13:43.801Z,34.35
2023-11-19T08:18:48.120Z,34.75
2023-11-19T08:23:51.116Z,34.35
2023-11-19T08:28:54.211Z,34.55
2023-11-19T08:33:58.477Z,34.35
2023-11-19T08:39:01.454Z,34.50
2023-11-19T08:44:04.502Z,34.33
2023-11-19T08:49:09.583Z,34.20
2023-11-19T08:54:13.848Z,34.40
2023-11-19T08:59:18.475Z,34.70
2023-11-19T09:04:23.893Z,34.83
2023-11-19T09:09:26.988Z,34.95
2023-11-19T09:14:29.943Z,34.33
2023-11-19T09:19:37.077Z,34.83
2023-11-19T09:24:40.141Z,34.58
2023-11-19T09:29:44.378Z,34.47
2023-11-19T09:34:48.810Z,34.60
2023-11-19T09:39:51.789Z,34.10
2023-11-19T09:44:57.016Z,34.65
2023-11-19T09:50:01.576Z,34.63
2023-11-19T09:55:04.754Z,34.67
2023-11-19T10:00:08.867Z,34.53
2023-11-19T10:05:14.007Z,34.22
2023-11-19T10:10:20.084Z,35.65
2023-11-19T10:15:25.469Z,34.58
2023-11-19T10:20:29.955Z,35.15
2023-11-19T10:25:33.045Z,34.50
2023-11-19T10:30:36.114Z,35.00
2023-11-19T10:41:01.743Z,34.70
2023-11-19T10:46:12.887Z,34.92
2023-11-19T10:51:22.718Z,35.05
2023-11-19T10:56:27.733Z,34.58
2023-11-19T11:01:37.040Z,34.95
2023-11-19T11:06:42.160Z,34.80
2023-11-19T11:11:49.633Z,34.50
2023-11-19T11:16:55.317Z,34.65
2023-11-19T11:22:01.105Z,34.83
2023-11-19T11:27:33.792Z,34.95
2023-11-19T11:32:46.138Z,35.03
2023-11-19T11:37:55.367Z,35.65
2023-11-19T11:42:58.498Z,35.53
2023-11-19T11:48:18.053Z,35.03
2023-11-19T11:53:28.634Z,35.70
2023-11-19T11:58:46.913Z,35.30
2023-11-19T12:03:58.841Z,37.30
2023-11-19T12:09:04.609Z,35.70
2023-11-19T12:14:07.828Z,35.10
2023-11-19T12:19:11.279Z,35.13
2023-11-19T12:24:16.044Z,35.03
2023-11-19T12:29:19.384Z,35.28
2023-11-19T12:34:25.969Z,37.40
2023-11-19T12:39:33.343Z,35.30
2023-11-19T12:44:36.423Z,35.35
2023-11-19T12:49:39.443Z,35.58
2023-11-19T12:54:43.775Z,35.13
2023-11-19T12:59:57.208Z,35.72
2023-11-19T13:05:00.218Z,35.50
2023-11-19T13:10:05.731Z,35.03
2023-11-19T13:15:24.669Z,35.15
2023-11-19T13:20:27.664Z,35.83
2023-11-19T13:25:33.119Z,35.42
2023-11-19T13:30:36.164Z,35.60
2023-11-19T13:35:41.369Z,35.30
2023-11-19T13:40:45.827Z,35.42
2023-11-19T13:45:48.827Z,35.35
2023-11-19T13:50:51.917Z,35.53
2023-11-19T13:55:56.429Z,35.42
2023-11-19T14:00:59.944Z,35.85
2023-11-19T14:06:03.769Z,35.95
2023-11-19T14:11:08.713Z,35.25
2023-11-19T14:16:13.826Z,35.22
2023-11-19T14:21:19.195Z,35.35
2023-11-19T14:26:23.505Z,35.58
2023-11-19T14:31:30.064Z,35.60
2023-11-19T14:36:33.070Z,36.25
2023-11-19T14:41:37.384Z,35.55
2023-11-19T14:46:40.545Z,36.13
2023-11-19T14:51:43.737Z,35.88
2023-11-19T14:56:48.345Z,35.15
2023-11-19T15:01:51.357Z,35.53
2023-11-19T15:06:55.094Z,35.58
2023-11-19T15:12:03.326Z,35.05
2023-11-19T15:17:08.189Z,35.05
2023-11-19T15:22:12.579Z,35.55
2023-11-19T15:27:17.025Z,34.70
2023-11-19T15:32:20.180Z,35.35
2023-11-19T15:37:23.195Z,35.15
2023-11-19T15:42:27.682Z,35.10
2023-11-19T15:47:30.717Z,34.85
2023-11-19T15:52:33.942Z,34.92
2023-11-19T15:57:38.358Z,34.92
2023-11-19T16:02:41.686Z,34.95
2023-11-19T16:07:44.838Z,34.90
2023-11-19T16:12:49.356Z,35.13
2023-11-19T16:17:52.444Z,34.88
2023-11-19T16:22:55.615Z,35.30
2023-11-19T16:28:00.581Z,35.45
2023-11-19T16:33:04.452Z,35.88
2023-11-19T16:38:08.012Z,35.00
2023-11-19T16:43:13.753Z,34.80
2023-11-19T16:48:16.843Z,35.58
2023-11-19T16:53:19.938Z,35.05
2023-11-19T16:58:25.114Z,35.75
2023-11-19T17:03:28.203Z,35.20
2023-11-19T17:08:33.467Z,35.33
2023-11-19T17:13:38.203Z,35.70
2023-11-19T17:18:48.864Z,35.53
2023-11-19T17:23:51.814Z,35.53
2023-11-19T17:28:58.241Z,35.58
2023-11-19T17:34:01.375Z,35.70
2023-11-19T17:39:05.153Z,34.88
2023-11-19T17:44:09.636Z,35.63
2023-11-19T17:49:15.462Z,35.35
2023-11-19T17:54:19.418Z,35.13
2023-11-19T17:59:25.941Z,35.60
2023-11-19T18:04:32.737Z,35.33
2023-11-19T18:09:35.747Z,35.92
2023-11-19T18:19:46.924Z,35.33
2023-11-19T18:24:50.780Z,35.47
2023-11-19T18:29:55.125Z,35.35
2023-11-19T18:34:58.170Z,35.70
2023-11-19T18:40:01.906Z,35.33
2023-11-19T18:45:13.317Z,35.25
2023-11-19T18:50:18.223Z,35.15
2023-11-19T18:55:23.089Z,35.28
2023-11-19T19:00:27.744Z,35.30
2023-11-19T19:05:32.903Z,35.33
2023-11-19T19:10:38.556Z,36.00
2023-11-19T19:15:44.605Z,35.35
2023-11-19T19:20:48.527Z,35.47
2023-11-19T19:25:52.625Z,35.10
2023-11-19T19:30:58.656Z,35.30
2023-11-19T19:36:03.607Z,35.25
2023-11-19T19:41:06.985Z,35.50
2023-11-19T19:46:12.278Z,35.03
2023-11-19T19:51:15.282Z,36.95
2023-11-19T19:56:18.304Z,36.72
2023-11-19T20:01:24.805Z,35.72
2023-11-19T20:06:31.733Z,36.45
2023-11-19T20:11:36.027Z,36.30
2023-11-19T20:16:41.408Z,36.00
2023-11-19T20:21:45.265Z,36.10
2023-11-19T20:26:54.274Z,36.42
2023-11-19T20:31:59.917Z,35.38
2023-11-19T20:37:03.849Z,35.85
2023-11-19T20:42:07.887Z,35.72
2023-11-19T20:47:13.635Z,35.70
2023-11-19T20:52:17.628Z,35.92
2023-11-19T20:57:20.770Z,36.40
2023-11-19T21:02:25.105Z,35.80
2023-11-19T21:07:28.319Z,35.53
2023-11-19T21:12:31.467Z,36.72
2023-11-19T21:17:36.127Z,35.78
2023-11-19T21:22:39.104Z,34.85
2023-11-19T21:27:42.230Z,35.33
2023-11-19T21:32:46.703Z,35.05
2023-11-19T21:37:49.677Z,35.28
2023-11-19T21:42:53.322Z,35.15
2023-11-19T21:47:57.676Z,35.75
2023-11-19T21:53:00.649Z,34.97
2023-11-19T21:58:05.130Z,35.33
2023-11-19T22:03:10.020Z,35.33
2023-11-19T22:08:18.649Z,35.20
2023-11-19T22:13:21.838Z,34.95
2023-11-19T22:18:26.226Z,35.47
2023-11-19T22:23:29.537Z,34.80
2023-11-19T22:28:34.298Z,35.80
2023-11-19T22:33:39.654Z,35.15
2023-11-19T22:38:42.807Z,35.63
2023-11-19T22:43:46.504Z,35.53
2023-11-19T22:48:53.874Z,34.65
2023-11-19T22:53:57.528Z,35.10
2023-11-19T22:59:00.559Z,35.33
2023-11-19T23:04:05.098Z,34.70
2023-11-19T23:09:08.165Z,35.17
2023-11-19T23:14:14.379Z,35.13
2023-11-19T23:19:18.924Z,35.67
2023-11-19T23:24:21.875Z,35.08
2023-11-19T23:29:26.212Z,35.80
2023-11-19T23:39:36.543Z,35.60
2023-11-19T23:44:39.542Z,35.88
2023-11-19T23:49:43.832Z,36.08
2023-11-19T23:54:46.810Z,35.58
2023-11-19T23:59:49.789Z,35.53
